Time;durP1;ratioP1;P1;durP2;ratioP2;P2;SDS_P1;SDS_P2;PMS_P1;PMS_P2;Temp;Humidity;BMP_temperature;BMP_pressure;BME280_temperature;BME280_humidity;BME280_pressure;Samples;Min_cycle;Max_cycle;Signal;HPM_P1;HPM_P2
2022/10/09 00:00:44;;;;;;;8.30;3.67;;;;;;;;;;5029917;28;20556;-68
2022/10/09 00:03:11;;;;;;;6.80;3.33;;;;;;;;;;5032081;28;21955;-67
2022/10/09 00:05:39;;;;;;;6.25;3.03;;;;;;;;;;5030124;28;20673;-67
2022/10/09 00:08:05;;;;;;;5.60;3.25;;;;;;;;;;5031621;28;20033;-67
2022/10/09 00:10:32;;;;;;;5.18;2.75;;;;;;;;;;5029522;28;20033;-68
2022/10/09 00:12:59;;;;;;;6.30;3.10;;;;;;;;;;5030659;28;20045;-63
2022/10/09 00:15:26;;;;;;;9.50;4.22;;;;;;;;;;5029834;28;20322;-66
2022/10/09 00:17:52;;;;;;;11.43;5.32;;;;;;;;;;5031212;28;20505;-66
2022/10/09 00:20:19;;;;;;;7.32;3.55;;;;;;;;;;5028915;28;20124;-68
2022/10/09 00:22:46;;;;;;;7.03;3.92;;;;;;;;;;5029774;28;20224;-67
2022/10/09 00:25:12;;;;;;;7.32;3.58;;;;;;;;;;5033993;28;20497;-66
2022/10/09 00:27:39;;;;;;;7.22;3.17;;;;;;;;;;5030232;28;20040;-66
2022/10/09 00:30:06;;;;;;;6.60;3.50;;;;;;;;;;5031695;28;20501;-67
2022/10/09 00:32:32;;;;;;;8.15;3.60;;;;;;;;;;5029312;28;20052;-66
2022/10/09 00:34:59;;;;;;;8.32;3.47;;;;;;;;;;5030203;28;20553;-67
2022/10/09 00:37:26;;;;;;;7.95;3.40;;;;;;;;;;5029843;28;20111;-67
2022/10/09 00:39:52;;;;;;;8.77;4.35;;;;;;;;;;5032464;28;20569;-65
2022/10/09 00:42:20;;;;;;;6.90;4.28;;;;;;;;;;5029198;28;20068;-65
2022/10/09 00:44:56;;;;;;;13.70;4.47;;;;;;;;;;5030059;28;20033;-66
2022/10/09 00:47:26;;;;;;;6.38;3.75;;;;;;;;;;5029609;28;20041;-67
2022/10/09 00:49:54;;;;;;;7.20;3.30;;;;;;;;;;5031039;28;20044;-67
2022/10/09 00:52:23;;;;;;;7.68;3.78;;;;;;;;;;5029089;28;20041;-66
2022/10/09 00:54:51;;;;;;;10.35;4.20;;;;;;;;;;5030126;28;20041;-66
2022/10/09 00:57:18;;;;;;;7.60;3.67;;;;;;;;;;5030241;28;20041;-67
2022/10/09 00:59:46;;;;;;;8.20;3.60;;;;;;;;;;5029321;28;20080;-66
2022/10/09 01:02:13;;;;;;;8.68;3.70;;;;;;;;;;5028094;28;20034;-67
2022/10/09 01:04:40;;;;;;;8.20;4.25;;;;;;;;;;5029140;28;20076;-66
2022/10/09 01:07:16;;;;;;;8.70;4.63;;;;;;;;;;5030420;28;20184;-66
2022/10/09 01:09:57;;;;;;;13.88;4.47;;;;;;;;;;5028942;28;20042;-63
2022/10/09 01:12:39;;;;;;;11.55;6.25;;;;;;;;;;5028545;28;20087;-69
2022/10/09 01:15:12;;;;;;;12.13;5.40;;;;;;;;;;5030368;28;20049;-67
2022/10/09 01:17:43;;;;;;;9.35;3.80;;;;;;;;;;5029759;28;20099;-67
2022/10/09 01:20:13;;;;;;;7.03;3.85;;;;;;;;;;5030968;28;20044;-67
2022/10/09 01:22:43;;;;;;;11.27;4.47;;;;;;;;;;5030493;28;20021;-65
2022/10/09 01:25:15;;;;;;;9.30;4.30;;;;;;;;;;5030078;28;20064;-68
2022/10/09 01:27:41;;;;;;;8.95;4.10;;;;;;;;;;5028956;28;20163;-68
2022/10/09 01:30:09;;;;;;;9.63;3.83;;;;;;;;;;5030046;28;20064;-68
2022/10/09 01:32:46;;;;;;;12.40;4.15;;;;;;;;;;5027674;28;20091;-67
2022/10/09 01:35:14;;;;;;;12.20;4.00;;;;;;;;;;5028716;28;20051;-67
2022/10/09 01:37:43;;;;;;;8.35;4.50;;;;;;;;;;5028164;28;20056;-67
2022/10/09 01:40:10;;;;;;;7.05;3.78;;;;;;;;;;5029543;28;20037;-66
2022/10/09 01:42:37;;;;;;;9.27;3.58;;;;;;;;;;5029524;28;20048;-67
2022/10/09 01:45:04;;;;;;;13.15;4.65;;;;;;;;;;5030352;28;20043;-66
2022/10/09 01:47:31;;;;;;;11.05;4.57;;;;;;;;;;5029357;28;20124;-66
2022/10/09 01:50:01;;;;;;;11.88;4.20;;;;;;;;;;5029029;28;20041;-67
2022/10/09 01:52:37;;;;;;;8.27;3.58;;;;;;;;;;5028738;28;20098;-69
2022/10/09 01:55:13;;;;;;;11.40;4.20;;;;;;;;;;5028880;28;20041;-62
2022/10/09 01:57:42;;;;;;;8.30;4.45;;;;;;;;;;5028677;28;20199;-66
2022/10/09 02:00:10;;;;;;;11.20;4.32;;;;;;;;;;5028879;28;20048;-66
2022/10/09 02:02:37;;;;;;;10.40;4.78;;;;;;;;;;5028232;28;20789;-66
2022/10/09 02:05:04;;;;;;;8.02;4.20;;;;;;;;;;5030182;28;20772;-66
2022/10/09 02:07:31;;;;;;;11.85;4.18;;;;;;;;;;5028106;28;20047;-66
2022/10/09 02:10:00;;;;;;;8.02;4.13;;;;;;;;;;5029359;28;20037;-67
2022/10/09 02:12:28;;;;;;;10.68;4.10;;;;;;;;;;5027345;28;20063;-67
2022/10/09 02:14:54;;;;;;;8.55;4.10;;;;;;;;;;5029535;28;20037;-67
2022/10/09 02:17:23;;;;;;;9.77;4.93;;;;;;;;;;5028006;28;20068;-68
2022/10/09 02:20:11;;;;;;;10.18;4.93;;;;;;;;;;5029146;28;20617;-67
2022/10/09 02:22:38;;;;;;;11.18;4.55;;;;;;;;;;5028874;28;20852;-65
2022/10/09 02:25:06;;;;;;;12.18;5.15;;;;;;;;;;5028828;28;20060;-65
2022/10/09 02:27:33;;;;;;;8.52;4.07;;;;;;;;;;5028644;28;20044;-68
2022/10/09 02:30:00;;;;;;;8.85;4.50;;;;;;;;;;5032507;28;20052;-66
2022/10/09 02:32:28;;;;;;;10.80;4.72;;;;;;;;;;5027668;28;20733;-66
2022/10/09 02:34:55;;;;;;;8.77;4.60;;;;;;;;;;5031580;28;20094;-66
2022/10/09 02:37:22;;;;;;;9.63;5.07;;;;;;;;;;5027318;28;20040;-66
2022/10/09 02:39:49;;;;;;;11.65;4.50;;;;;;;;;;5025424;28;20041;-67
2022/10/09 02:42:15;;;;;;;12.55;4.88;;;;;;;;;;5027318;28;20045;-65
2022/10/09 02:44:42;;;;;;;11.25;5.15;;;;;;;;;;5030991;28;20033;-66
2022/10/09 02:47:08;;;;;;;9.88;4.90;;;;;;;;;;5033033;28;20398;-65
2022/10/09 02:49:35;;;;;;;12.05;5.22;;;;;;;;;;5032009;28;20047;-70
2022/10/09 02:52:02;;;;;;;11.88;5.93;;;;;;;;;;5031925;28;20037;-68
2022/10/09 02:54:28;;;;;;;10.18;5.13;;;;;;;;;;5031210;28;20091;-66
2022/10/09 02:56:55;;;;;;;10.07;4.20;;;;;;;;;;5032660;28;20143;-68
2022/10/09 02:59:21;;;;;;;10.15;4.88;;;;;;;;;;5030356;28;20072;-68
2022/10/09 03:01:48;;;;;;;7.40;4.03;;;;;;;;;;5031714;28;20041;-66
2022/10/09 03:04:15;;;;;;;11.68;4.60;;;;;;;;;;5030948;28;20037;-66
2022/10/09 03:06:41;;;;;;;9.05;4.32;;;;;;;;;;5032251;28;20116;-67
2022/10/09 03:09:08;;;;;;;9.10;4.47;;;;;;;;;;5032360;28;20396;-67
2022/10/09 03:11:34;;;;;;;11.25;4.47;;;;;;;;;;5030432;28;20045;-65
2022/10/09 03:14:01;;;;;;;9.70;4.35;;;;;;;;;;5031676;28;20124;-66
2022/10/09 03:16:28;;;;;;;12.18;5.82;;;;;;;;;;5030478;28;20040;-66
2022/10/09 03:18:54;;;;;;;11.50;6.07;;;;;;;;;;5034522;28;20049;-66
2022/10/09 03:21:22;;;;;;;13.60;6.78;;;;;;;;;;5030838;28;20063;-66
2022/10/09 03:23:49;;;;;;;12.55;5.07;;;;;;;;;;5029874;28;20527;-66
2022/10/09 03:26:17;;;;;;;11.35;4.50;;;;;;;;;;5031353;28;20041;-66
2022/10/09 03:28:48;;;;;;;10.68;5.07;;;;;;;;;;5030974;28;20093;-65
2022/10/09 03:31:15;;;;;;;9.70;5.43;;;;;;;;;;5030509;28;20048;-67
2022/10/09 03:33:42;;;;;;;15.45;6.47;;;;;;;;;;5031833;28;20040;-67
2022/10/09 03:36:09;;;;;;;15.35;7.00;;;;;;;;;;5030603;28;20143;-68
2022/10/09 03:38:36;;;;;;;16.42;6.75;;;;;;;;;;5030106;28;20095;-68
2022/10/09 03:41:04;;;;;;;11.52;5.70;;;;;;;;;;5030130;28;20071;-67
2022/10/09 03:43:30;;;;;;;9.93;5.35;;;;;;;;;;5030311;28;20049;-68
2022/10/09 03:45:57;;;;;;;11.43;5.15;;;;;;;;;;5031728;28;20371;-67
2022/10/09 03:48:24;;;;;;;14.68;6.68;;;;;;;;;;5030508;28;20041;-68
2022/10/09 03:50:51;;;;;;;17.35;6.72;;;;;;;;;;5010503;28;20043;-66
2022/10/09 03:53:17;;;;;;;14.57;6.43;;;;;;;;;;5030740;28;20223;-68
2022/10/09 03:55:44;;;;;;;11.60;5.80;;;;;;;;;;5030992;28;20045;-66
2022/10/09 03:58:10;;;;;;;12.25;5.88;;;;;;;;;;5031256;28;20037;-66
2022/10/09 04:00:37;;;;;;;11.77;5.53;;;;;;;;;;5031137;28;20037;-67
2022/10/09 04:03:03;;;;;;;19.95;7.03;;;;;;;;;;5031164;28;20084;-66
2022/10/09 04:05:33;;;;;;;13.75;6.50;;;;;;;;;;5029612;28;20044;-65
2022/10/09 04:08:00;;;;;;;14.13;6.10;;;;;;;;;;5032589;28;20073;-65
2022/10/09 04:10:26;;;;;;;15.50;6.40;;;;;;;;;;5028040;28;20049;-67
2022/10/09 04:12:53;;;;;;;12.32;6.53;;;;;;;;;;5031291;28;20051;-69
2022/10/09 04:15:19;;;;;;;11.32;6.00;;;;;;;;;;5031582;28;20121;-66
2022/10/09 04:17:46;;;;;;;12.00;6.22;;;;;;;;;;5029945;28;20036;-67
2022/10/09 04:20:13;;;;;;;12.57;6.75;;;;;;;;;;5030721;28;20033;-68
2022/10/09 04:22:39;;;;;;;20.98;8.65;;;;;;;;;;5030099;28;20054;-67
2022/10/09 04:25:06;;;;;;;20.52;7.75;;;;;;;;;;5034799;28;20040;-65
2022/10/09 04:27:33;;;;;;;13.57;7.38;;;;;;;;;;5029752;28;20466;-66
2022/10/09 04:29:59;;;;;;;14.95;6.70;;;;;;;;;;5034427;28;20048;-66
2022/10/09 04:32:26;;;;;;;11.07;6.00;;;;;;;;;;5034054;28;20040;-67
2022/10/09 04:35:13;;;;;;;11.38;6.15;;;;;;;;;;4953868;28;20050;-66
2022/10/09 04:37:39;;;;;;;15.45;6.47;;;;;;;;;;4973855;28;20094;-66
2022/10/09 04:40:06;;;;;;;12.35;6.28;;;;;;;;;;4973452;28;20207;-64
2022/10/09 04:42:32;;;;;;;12.75;6.22;;;;;;;;;;4973937;28;20037;-66
2022/10/09 04:44:59;;;;;;;11.68;6.10;;;;;;;;;;4975349;28;20038;-66
2022/10/09 04:47:26;;;;;;;11.13;6.10;;;;;;;;;;4974216;28;20170;-66
2022/10/09 04:49:52;;;;;;;17.00;6.32;;;;;;;;;;4974536;28;20051;-68
2022/10/09 04:52:19;;;;;;;15.45;6.85;;;;;;;;;;4974268;28;20054;-66
2022/10/09 04:54:45;;;;;;;11.65;6.43;;;;;;;;;;4973923;28;20262;-66
2022/10/09 04:57:12;;;;;;;14.32;6.93;;;;;;;;;;4973981;28;20046;-67
2022/10/09 04:59:39;;;;;;;14.40;6.97;;;;;;;;;;4965400;28;20526;-67
2022/10/09 05:02:05;;;;;;;19.65;7.25;;;;;;;;;;4974496;28;20035;-66
2022/10/09 05:04:32;;;;;;;16.05;7.10;;;;;;;;;;4974986;28;20110;-66
2022/10/09 05:06:58;;;;;;;17.00;6.65;;;;;;;;;;4976429;28;20788;-66
2022/10/09 05:09:25;;;;;;;13.77;7.20;;;;;;;;;;4976050;28;20042;-66
2022/10/09 05:11:52;;;;;;;15.98;6.72;;;;;;;;;;4982136;28;20033;-69
2022/10/09 05:14:18;;;;;;;16.88;7.60;;;;;;;;;;5030647;28;20064;-66
2022/10/09 05:16:45;;;;;;;16.13;6.85;;;;;;;;;;5029057;28;20036;-66
2022/10/09 05:19:11;;;;;;;17.10;7.40;;;;;;;;;;5030454;28;20057;-66
2022/10/09 05:21:38;;;;;;;17.52;8.32;;;;;;;;;;5028478;28;20041;-68
2022/10/09 05:24:05;;;;;;;18.15;7.35;;;;;;;;;;5028495;28;20037;-68
2022/10/09 05:26:31;;;;;;;19.90;8.02;;;;;;;;;;5027653;28;20782;-67
2022/10/09 05:28:58;;;;;;;18.85;7.95;;;;;;;;;;5030152;28;20037;-67
2022/10/09 05:31:26;;;;;;;14.40;7.60;;;;;;;;;;5014389;28;20041;-65
2022/10/09 05:33:53;;;;;;;21.05;8.05;;;;;;;;;;5028621;28;20040;-65
2022/10/09 05:36:20;;;;;;;23.48;8.52;;;;;;;;;;5029128;28;20040;-68
2022/10/09 05:38:47;;;;;;;19.23;8.88;;;;;;;;;;5031397;28;20094;-66
2022/10/09 05:41:15;;;;;;;20.55;8.82;;;;;;;;;;5013895;28;20102;-67
2022/10/09 05:43:43;;;;;;;20.65;8.48;;;;;;;;;;5028685;28;20073;-67
2022/10/09 05:46:14;;;;;;;17.17;8.88;;;;;;;;;;5030276;28;20041;-68
2022/10/09 05:48:42;;;;;;;17.15;8.40;;;;;;;;;;5029108;28;20533;-66
2022/10/09 05:51:16;;;;;;;19.40;9.70;;;;;;;;;;5029114;28;20041;-67
2022/10/09 05:53:43;;;;;;;22.73;9.23;;;;;;;;;;5028416;28;20050;-68
2022/10/09 05:56:21;;;;;;;23.05;9.02;;;;;;;;;;5030591;28;20502;-67
2022/10/09 05:58:52;;;;;;;19.67;9.13;;;;;;;;;;5028769;28;20049;-66
2022/10/09 06:01:19;;;;;;;24.35;8.80;;;;;;;;;;5027799;28;20041;-65
2022/10/09 06:03:53;;;;;;;18.73;8.82;;;;;;;;;;5028933;28;20064;-66
2022/10/09 06:06:21;;;;;;;18.27;9.43;;;;;;;;;;5027803;28;20113;-67
2022/10/09 06:08:47;;;;;;;19.63;9.05;;;;;;;;;;5030120;28;20683;-67
2022/10/09 06:11:16;;;;;;;27.73;8.80;;;;;;;;;;5027882;28;20048;-67
2022/10/09 06:13:43;;;;;;;24.52;8.30;;;;;;;;;;5009962;28;20056;-65
2022/10/09 06:16:10;;;;;;;18.48;8.90;;;;;;;;;;5029841;28;20849;-66
2022/10/09 06:18:37;;;;;;;15.27;7.82;;;;;;;;;;5028389;28;20048;-66
2022/10/09 06:21:04;;;;;;;22.17;8.43;;;;;;;;;;5032229;28;20087;-67
2022/10/09 06:23:31;;;;;;;21.75;8.57;;;;;;;;;;5014178;28;20082;-66
2022/10/09 06:25:59;;;;;;;20.35;8.50;;;;;;;;;;5032535;28;20041;-68
2022/10/09 06:28:27;;;;;;;15.02;7.78;;;;;;;;;;5032673;28;20174;-66
2022/10/09 06:30:54;;;;;;;21.15;8.45;;;;;;;;;;5033163;28;20043;-68
2022/10/09 06:33:20;;;;;;;26.63;8.85;;;;;;;;;;5033373;28;21761;-68
2022/10/09 06:35:47;;;;;;;14.52;8.00;;;;;;;;;;5033064;28;20437;-66
2022/10/09 06:38:16;;;;;;;17.75;8.07;;;;;;;;;;5033322;28;20045;-67
2022/10/09 06:40:43;;;;;;;18.10;7.85;;;;;;;;;;5032618;28;20056;-67
2022/10/09 06:43:10;;;;;;;17.40;8.25;;;;;;;;;;5033301;28;20445;-66
2022/10/09 06:45:37;;;;;;;16.40;7.90;;;;;;;;;;5034438;28;20544;-68
2022/10/09 06:48:04;;;;;;;21.33;8.35;;;;;;;;;;5036017;28;20097;-67
2022/10/09 06:50:30;;;;;;;14.30;8.02;;;;;;;;;;5033881;28;20762;-68
2022/10/09 06:52:57;;;;;;;17.80;7.90;;;;;;;;;;5031316;28;20076;-67
2022/10/09 06:55:24;;;;;;;19.50;8.57;;;;;;;;;;5033374;28;20038;-66
2022/10/09 06:57:50;;;;;;;19.42;7.75;;;;;;;;;;5034784;28;20037;-67
2022/10/09 07:00:17;;;;;;;25.67;7.47;;;;;;;;;;5031162;28;20053;-67
2022/10/09 07:02:44;;;;;;;20.98;8.10;;;;;;;;;;5033501;28;20079;-66
2022/10/09 07:05:10;;;;;;;12.43;7.38;;;;;;;;;;5033001;28;20128;-67
2022/10/09 07:07:39;;;;;;;20.80;7.68;;;;;;;;;;5032475;28;20037;-66
2022/10/09 07:10:06;;;;;;;13.25;7.65;;;;;;;;;;5031927;28;20040;-66
2022/10/09 07:12:36;;;;;;;15.60;6.90;;;;;;;;;;5029931;28;20962;-67
2022/10/09 07:15:04;;;;;;;14.75;7.35;;;;;;;;;;5032239;28;20045;-67
2022/10/09 07:17:30;;;;;;;19.02;8.20;;;;;;;;;;5030597;28;20037;-68
2022/10/09 07:19:57;;;;;;;17.27;7.88;;;;;;;;;;5030368;28;20053;-66
2022/10/09 07:22:24;;;;;;;15.70;6.95;;;;;;;;;;5031487;28;20665;-66
2022/10/09 07:24:50;;;;;;;13.50;6.97;;;;;;;;;;5032453;28;20045;-66
2022/10/09 07:27:17;;;;;;;14.85;7.72;;;;;;;;;;5032097;28;20083;-66
2022/10/09 07:29:44;;;;;;;18.33;7.68;;;;;;;;;;5030694;28;20042;-67
2022/10/09 07:32:10;;;;;;;18.35;7.32;;;;;;;;;;5033227;28;20049;-67
2022/10/09 07:34:37;;;;;;;13.82;6.88;;;;;;;;;;5030583;28;20983;-66
2022/10/09 07:37:03;;;;;;;13.18;7.15;;;;;;;;;;5031721;28;20124;-67
2022/10/09 07:39:30;;;;;;;15.02;6.70;;;;;;;;;;5030753;28;20521;-66
2022/10/09 07:41:57;;;;;;;12.48;6.70;;;;;;;;;;5031465;28;20132;-66
2022/10/09 07:44:23;;;;;;;14.95;6.50;;;;;;;;;;5031121;28;20033;-65
2022/10/09 07:46:51;;;;;;;15.05;6.18;;;;;;;;;;5033140;28;20559;-66
2022/10/09 07:49:18;;;;;;;11.63;6.40;;;;;;;;;;5031480;28;20282;-66
2022/10/09 07:51:44;;;;;;;14.75;6.35;;;;;;;;;;5030233;28;20041;-66
2022/10/09 07:54:11;;;;;;;16.95;7.03;;;;;;;;;;5032130;28;20029;-66
2022/10/09 07:56:38;;;;;;;13.77;6.20;;;;;;;;;;5031938;28;20114;-66
2022/10/09 07:59:05;;;;;;;11.85;6.50;;;;;;;;;;5031103;28;20056;-64
2022/10/09 08:01:33;;;;;;;12.35;6.55;;;;;;;;;;5030614;28;20520;-65
2022/10/09 08:04:00;;;;;;;11.73;5.95;;;;;;;;;;5030484;28;20041;-65
2022/10/09 08:06:27;;;;;;;13.02;7.00;;;;;;;;;;5030649;28;20095;-65
2022/10/09 08:08:55;;;;;;;12.68;5.93;;;;;;;;;;5031767;28;20045;-65
2022/10/09 08:11:23;;;;;;;12.95;6.05;;;;;;;;;;5029985;28;20127;-67
2022/10/09 08:13:50;;;;;;;16.10;6.30;;;;;;;;;;5030823;28;20103;-65
2022/10/09 08:16:18;;;;;;;11.73;6.05;;;;;;;;;;5030914;28;20053;-65
2022/10/09 08:18:45;;;;;;;13.85;6.43;;;;;;;;;;5029931;28;20433;-65
2022/10/09 08:21:12;;;;;;;14.88;7.10;;;;;;;;;;5030930;28;20402;-66
2022/10/09 08:23:39;;;;;;;15.20;6.55;;;;;;;;;;5029947;28;20045;-66
2022/10/09 08:26:13;;;;;;;12.05;6.18;;;;;;;;;;5031268;28;20052;-66
2022/10/09 08:28:39;;;;;;;15.60;6.18;;;;;;;;;;5030345;28;20514;-66
2022/10/09 08:31:13;;;;;;;12.45;6.90;;;;;;;;;;5030636;28;20032;-66
2022/10/09 08:33:39;;;;;;;15.23;6.13;;;;;;;;;;5017001;28;20041;-65
2022/10/09 08:36:07;;;;;;;13.00;6.32;;;;;;;;;;5031849;28;20052;-66
2022/10/09 08:38:36;;;;;;;14.77;6.65;;;;;;;;;;5029362;28;20058;-65
2022/10/09 08:41:03;;;;;;;13.55;6.55;;;;;;;;;;5030444;28;20044;-65
2022/10/09 08:43:32;;;;;;;15.70;6.28;;;;;;;;;;5030212;28;20037;-66
2022/10/09 08:46:04;;;;;;;18.38;6.60;;;;;;;;;;5030352;28;20385;-65
2022/10/09 08:48:33;;;;;;;13.20;6.90;;;;;;;;;;5018515;28;20037;-66
2022/10/09 08:51:00;;;;;;;11.63;6.07;;;;;;;;;;5030298;28;20874;-66
2022/10/09 08:53:39;;;;;;;11.80;6.30;;;;;;;;;;5030268;28;20337;-66
2022/10/09 08:56:06;;;;;;;10.98;5.85;;;;;;;;;;5030677;28;20041;-66
2022/10/09 08:58:34;;;;;;;14.27;6.40;;;;;;;;;;5016075;28;20041;-65
2022/10/09 09:01:05;;;;;;;14.10;7.05;;;;;;;;;;5028900;28;20044;-65
2022/10/09 09:03:31;;;;;;;14.60;7.13;;;;;;;;;;5029516;28;20045;-65
2022/10/09 09:06:13;;;;;;;12.38;6.88;;;;;;;;;;5030228;28;20049;-66
2022/10/09 09:08:59;;;;;;;17.85;7.18;;;;;;;;;;5017419;28;21026;-65
2022/10/09 09:11:26;;;;;;;13.13;6.53;;;;;;;;;;5027176;28;20106;-66
2022/10/09 09:14:03;;;;;;;10.95;6.22;;;;;;;;;;5031176;28;20183;-65
2022/10/09 09:16:35;;;;;;;14.82;7.25;;;;;;;;;;5028224;28;20140;-65
2022/10/09 09:19:20;;;;;;;13.93;6.25;;;;;;;;;;5029736;28;20075;-65
2022/10/09 09:21:48;;;;;;;13.90;6.68;;;;;;;;;;5014528;28;20044;-65
2022/10/09 09:24:19;;;;;;;12.50;6.43;;;;;;;;;;5030737;28;20565;-66
2022/10/09 09:26:48;;;;;;;14.07;6.10;;;;;;;;;;5030413;28;20068;-65
2022/10/09 09:29:16;;;;;;;13.65;6.57;;;;;;;;;;5030391;28;20116;-65
2022/10/09 09:31:44;;;;;;;17.15;6.50;;;;;;;;;;5029354;28;20153;-68
2022/10/09 09:34:16;;;;;;;12.82;6.00;;;;;;;;;;5030128;28;20151;-65
2022/10/09 09:36:54;;;;;;;11.40;5.97;;;;;;;;;;5029859;28;20065;-65
2022/10/09 09:39:22;;;;;;;14.85;6.60;;;;;;;;;;5028725;28;20068;-67
2022/10/09 09:41:49;;;;;;;13.80;6.20;;;;;;;;;;5030752;28;20045;-65
2022/10/09 09:44:17;;;;;;;12.52;6.40;;;;;;;;;;5029349;28;20037;-66
2022/10/09 09:46:45;;;;;;;10.30;6.05;;;;;;;;;;5029512;28;20556;-67
2022/10/09 09:49:19;;;;;;;15.05;6.68;;;;;;;;;;5029547;28;20044;-66
2022/10/09 09:51:46;;;;;;;12.80;6.13;;;;;;;;;;5029746;28;20557;-66
2022/10/09 09:54:15;;;;;;;11.05;6.18;;;;;;;;;;5032754;28;20041;-65
2022/10/09 09:56:43;;;;;;;13.27;6.25;;;;;;;;;;5035125;28;20052;-65
2022/10/09 09:59:25;;;;;;;17.13;6.70;;;;;;;;;;5034019;28;20057;-64
2022/10/09 10:02:04;;;;;;;15.27;6.15;;;;;;;;;;5032231;28;20311;-64
2022/10/09 10:04:30;;;;;;;14.13;6.28;;;;;;;;;;5032414;28;20071;-65
2022/10/09 10:06:57;;;;;;;10.23;5.70;;;;;;;;;;5018054;28;20036;-65
2022/10/09 10:09:24;;;;;;;10.48;5.78;;;;;;;;;;5033053;28;20136;-66
2022/10/09 10:11:55;;;;;;;12.10;6.32;;;;;;;;;;5034200;28;20095;-64
2022/10/09 10:14:22;;;;;;;15.77;5.90;;;;;;;;;;5031797;28;20173;-66
2022/10/09 10:16:49;;;;;;;13.00;6.15;;;;;;;;;;5034492;28;20119;-65
2022/10/09 10:19:23;;;;;;;12.18;5.65;;;;;;;;;;5033630;28;20049;-65
2022/10/09 10:21:57;;;;;;;12.23;5.57;;;;;;;;;;5032749;28;20069;-65
2022/10/09 10:24:44;;;;;;;10.32;5.50;;;;;;;;;;5031724;28;20122;-64
2022/10/09 10:27:22;;;;;;;20.02;5.97;;;;;;;;;;5032552;28;20049;-66
2022/10/09 10:29:50;;;;;;;9.88;5.70;;;;;;;;;;5032473;28;20056;-66
2022/10/09 10:32:22;;;;;;;13.68;5.65;;;;;;;;;;5032746;28;20040;-65
2022/10/09 10:34:52;;;;;;;11.55;6.30;;;;;;;;;;5031895;28;20064;-64
2022/10/09 10:37:28;;;;;;;10.38;6.00;;;;;;;;;;5033391;28;20533;-65
2022/10/09 10:39:57;;;;;;;12.50;6.28;;;;;;;;;;5032422;28;20055;-65
2022/10/09 10:42:46;;;;;;;11.65;6.20;;;;;;;;;;5031429;28;20127;-64
2022/10/09 10:45:18;;;;;;;14.98;5.80;;;;;;;;;;5033091;28;20417;-65
2022/10/09 10:47:48;;;;;;;12.40;5.97;;;;;;;;;;5032111;28;20041;-64
2022/10/09 10:50:15;;;;;;;9.02;5.40;;;;;;;;;;5032281;28;20461;-65
2022/10/09 10:52:45;;;;;;;14.48;5.90;;;;;;;;;;5033081;28;20502;-66
2022/10/09 10:55:35;;;;;;;14.52;6.30;;;;;;;;;;5032913;28;20196;-67
2022/10/09 10:58:07;;;;;;;9.50;5.30;;;;;;;;;;5032297;28;20474;-65
2022/10/09 11:00:36;;;;;;;10.98;5.65;;;;;;;;;;5031709;28;20806;-66
2022/10/09 11:03:05;;;;;;;13.30;6.40;;;;;;;;;;5031872;28;20041;-66
2022/10/09 11:05:32;;;;;;;13.75;6.25;;;;;;;;;;5030958;28;20509;-65
2022/10/09 11:08:08;;;;;;;13.23;6.15;;;;;;;;;;5032867;28;20076;-64
2022/10/09 11:10:56;;;;;;;16.77;6.55;;;;;;;;;;5032127;28;20067;-66
2022/10/09 11:13:26;;;;;;;12.48;6.45;;;;;;;;;;5032994;28;20049;-64
2022/10/09 11:16:01;;;;;;;12.18;6.45;;;;;;;;;;5033522;28;20049;-65
2022/10/09 11:18:52;;;;;;;14.52;6.40;;;;;;;;;;5033079;28;20049;-65
2022/10/09 11:21:37;;;;;;;11.73;6.18;;;;;;;;;;5031082;28;20132;-66
2022/10/09 11:24:17;;;;;;;12.63;6.60;;;;;;;;;;5033690;28;20036;-66
2022/10/09 11:27:03;;;;;;;11.00;6.03;;;;;;;;;;5032507;28;20087;-66
2022/10/09 11:29:33;;;;;;;13.65;5.90;;;;;;;;;;5017564;28;20047;-65
2022/10/09 11:32:03;;;;;;;13.10;6.30;;;;;;;;;;5031892;28;20045;-68
2022/10/09 11:34:33;;;;;;;11.63;5.75;;;;;;;;;;5032238;28;20041;-65
2022/10/09 11:37:01;;;;;;;12.63;6.43;;;;;;;;;;5031898;28;20070;-65
2022/10/09 11:39:32;;;;;;;13.75;6.30;;;;;;;;;;5029699;28;20081;-65
2022/10/09 11:41:59;;;;;;;14.02;6.20;;;;;;;;;;5032524;28;20363;-66
2022/10/09 11:44:42;;;;;;;11.57;6.00;;;;;;;;;;5030622;28;20029;-64
2022/10/09 11:47:18;;;;;;;13.90;6.43;;;;;;;;;;5031319;28;20049;-65
2022/10/09 11:49:58;;;;;;;13.68;6.18;;;;;;;;;;5029554;28;20049;-66
2022/10/09 11:52:24;;;;;;;13.48;6.03;;;;;;;;;;5030036;28;20060;-66
2022/10/09 11:54:51;;;;;;;13.73;5.95;;;;;;;;;;5031126;28;20062;-66
2022/10/09 11:57:26;;;;;;;13.55;5.70;;;;;;;;;;5028573;28;20297;-66
2022/10/09 12:00:02;;;;;;;10.90;6.00;;;;;;;;;;5030841;28;20057;-66
2022/10/09 12:02:30;;;;;;;12.93;5.80;;;;;;;;;;5030762;28;20071;-65
2022/10/09 12:04:57;;;;;;;12.38;6.20;;;;;;;;;;5030216;28;20049;-64
2022/10/09 12:07:30;;;;;;;11.27;6.00;;;;;;;;;;5029136;28;20045;-65
2022/10/09 12:10:01;;;;;;;12.35;5.75;;;;;;;;;;5030226;28;20107;-65
2022/10/09 12:12:28;;;;;;;13.40;5.93;;;;;;;;;;5029570;28;20036;-64
2022/10/09 12:14:55;;;;;;;12.85;5.85;;;;;;;;;;5030353;28;20029;-65
2022/10/09 12:17:21;;;;;;;10.50;6.03;;;;;;;;;;5030244;28;20043;-64
2022/10/09 12:19:55;;;;;;;13.98;6.15;;;;;;;;;;5031636;28;20052;-65
2022/10/09 12:22:42;;;;;;;10.90;5.65;;;;;;;;;;5029921;28;20040;-64
2022/10/09 12:25:29;;;;;;;12.88;6.50;;;;;;;;;;5030278;28;20125;-64
2022/10/09 12:27:57;;;;;;;14.30;6.03;;;;;;;;;;5030536;28;20041;-64
2022/10/09 12:30:28;;;;;;;15.70;5.82;;;;;;;;;;5028508;28;20758;-65
2022/10/09 12:33:18;;;;;;;10.68;5.70;;;;;;;;;;5031143;28;20032;-66
2022/10/09 12:35:46;;;;;;;10.77;5.85;;;;;;;;;;5021189;28;20072;-64
2022/10/09 12:38:26;;;;;;;10.13;5.80;;;;;;;;;;5030266;28;20398;-67
2022/10/09 12:40:54;;;;;;;11.73;5.90;;;;;;;;;;5029449;28;20153;-67
2022/10/09 12:43:22;;;;;;;11.35;5.88;;;;;;;;;;5030642;28;20060;-66
2022/10/09 12:45:50;;;;;;;11.50;5.70;;;;;;;;;;5029801;28;20080;-67
2022/10/09 12:48:18;;;;;;;12.45;6.50;;;;;;;;;;5031114;28;20072;-67
2022/10/09 12:50:45;;;;;;;12.88;6.95;;;;;;;;;;5031034;28;20366;-67
2022/10/09 12:53:16;;;;;;;17.33;7.53;;;;;;;;;;5030309;28;20042;-68
2022/10/09 12:55:47;;;;;;;14.98;6.82;;;;;;;;;;5029107;28;20064;-68
2022/10/09 12:58:17;;;;;;;14.13;6.95;;;;;;;;;;5030997;28;20361;-66
2022/10/09 13:00:45;;;;;;;13.40;6.50;;;;;;;;;;5030260;28;20041;-67
2022/10/09 13:03:25;;;;;;;11.13;6.65;;;;;;;;;;5029628;28;20033;-68
2022/10/09 13:05:52;;;;;;;14.40;7.00;;;;;;;;;;5029339;28;20494;-66
2022/10/09 13:08:26;;;;;;;13.80;6.75;;;;;;;;;;5029749;28;20080;-67
2022/10/09 13:10:54;;;;;;;12.30;6.68;;;;;;;;;;5029023;28;20044;-66
2022/10/09 13:13:26;;;;;;;12.10;6.57;;;;;;;;;;5029463;28;20379;-66
2022/10/09 13:16:05;;;;;;;12.82;6.50;;;;;;;;;;5028741;28;20768;-67
2022/10/09 13:18:31;;;;;;;15.45;6.57;;;;;;;;;;5029365;28;20131;-66
2022/10/09 13:21:22;;;;;;;13.60;6.50;;;;;;;;;;5031240;28;20065;-67
2022/10/09 13:23:48;;;;;;;13.18;6.28;;;;;;;;;;5028769;28;20071;-66
2022/10/09 13:26:21;;;;;;;15.43;6.95;;;;;;;;;;5032882;28;20057;-66
2022/10/09 13:28:48;;;;;;;12.13;6.90;;;;;;;;;;5028402;28;20071;-67
2022/10/09 13:31:14;;;;;;;14.43;7.28;;;;;;;;;;5029876;28;20065;-66
2022/10/09 13:33:41;;;;;;;12.00;6.60;;;;;;;;;;5029025;28;20040;-66
2022/10/09 13:36:07;;;;;;;12.60;7.03;;;;;;;;;;5029485;28;20522;-66
2022/10/09 13:38:34;;;;;;;13.02;6.68;;;;;;;;;;5028879;28;20056;-65
2022/10/09 13:41:00;;;;;;;11.18;6.40;;;;;;;;;;5030098;28;20061;-67
2022/10/09 13:43:27;;;;;;;11.95;6.25;;;;;;;;;;5029850;28;20087;-66
2022/10/09 13:45:54;;;;;;;13.70;6.80;;;;;;;;;;5029979;28;20111;-67
2022/10/09 13:48:21;;;;;;;13.10;6.07;;;;;;;;;;5028720;28;20072;-66
2022/10/09 13:50:47;;;;;;;12.20;6.40;;;;;;;;;;5029874;28;20537;-66
2022/10/09 13:53:14;;;;;;;9.85;5.30;;;;;;;;;;5030349;28;20033;-66
2022/10/09 13:55:41;;;;;;;12.13;6.57;;;;;;;;;;5027468;28;20068;-65
2022/10/09 13:58:07;;;;;;;11.23;6.72;;;;;;;;;;5030174;28;21066;-65
2022/10/09 14:00:35;;;;;;;11.80;6.55;;;;;;;;;;5027974;28;20033;-66
2022/10/09 14:03:02;;;;;;;10.13;5.95;;;;;;;;;;5031142;28;20068;-65
2022/10/09 14:05:29;;;;;;;8.43;4.97;;;;;;;;;;5027360;28;20056;-65
2022/10/09 14:07:56;;;;;;;15.50;5.88;;;;;;;;;;5029434;28;20052;-65
2022/10/09 14:10:22;;;;;;;21.98;6.07;;;;;;;;;;5029159;28;20049;-65
2022/10/09 14:12:49;;;;;;;10.35;6.22;;;;;;;;;;5029157;28;20037;-65
2022/10/09 14:15:16;;;;;;;13.20;6.05;;;;;;;;;;5028610;28;20033;-66
2022/10/09 14:17:43;;;;;;;12.40;6.03;;;;;;;;;;5014283;28;20033;-66
2022/10/09 14:20:10;;;;;;;10.85;5.70;;;;;;;;;;5028887;28;20083;-66
2022/10/09 14:22:36;;;;;;;9.95;6.25;;;;;;;;;;5027509;28;20037;-66
2022/10/09 14:25:03;;;;;;;11.07;6.20;;;;;;;;;;5028741;28;20041;-66
2022/10/09 14:27:30;;;;;;;13.52;6.05;;;;;;;;;;5028539;28;20046;-66
2022/10/09 14:29:57;;;;;;;10.52;5.82;;;;;;;;;;5029820;28;20132;-66
2022/10/09 14:32:23;;;;;;;15.18;6.55;;;;;;;;;;5013866;28;20569;-67
2022/10/09 14:34:50;;;;;;;16.65;6.40;;;;;;;;;;5029451;28;20033;-65
2022/10/09 14:37:17;;;;;;;12.45;6.15;;;;;;;;;;5030152;28;20049;-65
2022/10/09 14:39:45;;;;;;;16.15;6.60;;;;;;;;;;5031511;28;20053;-65
2022/10/09 14:42:12;;;;;;;15.60;7.03;;;;;;;;;;5034891;28;20556;-65